createdAt,value
2023-05-17T00:00:26.432Z,17.10
2023-05-17T00:01:30.253Z,16.30
2023-05-17T00:02:34.150Z,16.58
2023-05-17T00:03:37.991Z,17.17
2023-05-17T00:04:41.940Z,16.67
2023-05-17T00:05:46.105Z,17.03
2023-05-17T00:06:49.972Z,16.13
2023-05-17T00:07:53.726Z,16.23
2023-05-17T00:08:57.622Z,16.60
2023-05-17T00:10:01.439Z,15.80
2023-05-17T00:11:05.370Z,15.80
2023-05-17T00:12:09.406Z,17.27
2023-05-17T00:13:14.907Z,16.27
2023-05-17T00:14:18.741Z,16.05
2023-05-17T00:15:22.668Z,15.63
2023-05-17T00:16:26.558Z,16.13
2023-05-17T00:17:30.953Z,16.10
2023-05-17T00:18:35.084Z,16.05
2023-05-17T00:19:39.109Z,16.08
2023-05-17T00:20:42.921Z,16.27
2023-05-17T00:21:46.880Z,16.20
2023-05-17T00:22:50.667Z,16.42
2023-05-17T00:23:54.510Z,17.17
2023-05-17T00:24:58.269Z,16.10
2023-05-17T00:26:02.067Z,16.38
2023-05-17T00:27:06.496Z,15.30
2023-05-17T00:28:10.257Z,16.95
2023-05-17T00:29:15.737Z,16.15
2023-05-17T00:30:19.676Z,15.30
2023-05-17T00:31:23.574Z,15.55
2023-05-17T00:32:27.496Z,16.13
2023-05-17T00:33:31.327Z,16.02
2023-05-17T00:34:35.133Z,16.15
2023-05-17T00:35:38.881Z,16.23
2023-05-17T00:36:42.712Z,15.93
2023-05-17T00:37:46.818Z,16.70
2023-05-17T00:38:50.644Z,16.65
2023-05-17T00:39:54.458Z,17.13
2023-05-17T00:40:58.414Z,16.70
2023-05-17T00:42:02.825Z,15.52
2023-05-17T00:43:06.666Z,16.00
2023-05-17T00:44:10.520Z,15.88
2023-05-17T00:45:16.052Z,17.10
2023-05-17T00:46:20.009Z,15.98
2023-05-17T00:47:23.877Z,16.55
2023-05-17T00:48:29.259Z,16.17
2023-05-17T00:49:33.344Z,16.23
2023-05-17T00:50:37.338Z,16.83
2023-05-17T00:51:41.517Z,16.83
2023-05-17T00:52:45.987Z,16.83
2023-05-17T00:53:49.918Z,16.33
2023-05-17T00:54:53.977Z,15.98
2023-05-17T00:55:57.949Z,16.35
2023-05-17T00:57:01.947Z,16.42
2023-05-17T00:58:05.823Z,16.25
2023-05-17T00:59:11.327Z,16.53
2023-05-17T01:00:17.554Z,15.38
2023-05-17T01:01:21.698Z,15.98
2023-05-17T01:02:25.636Z,15.52
2023-05-17T01:03:29.674Z,16.23
2023-05-17T01:04:33.875Z,15.50
2023-05-17T01:05:37.892Z,16.10
2023-05-17T01:06:41.897Z,15.55
2023-05-17T01:07:46.054Z,15.70
2023-05-17T01:08:50.037Z,16.55
2023-05-17T01:09:54.093Z,16.40
2023-05-17T01:11:02.941Z,16.02
2023-05-17T01:12:16.429Z,16.33
2023-05-17T01:13:28.563Z,16.65
2023-05-17T01:14:48.251Z,16.00
2023-05-17T01:16:02.564Z,16.20
2023-05-17T01:17:11.970Z,15.52
2023-05-17T01:18:22.725Z,16.60
2023-05-17T01:19:57.820Z,16.13
2023-05-17T01:21:10.870Z,17.15
2023-05-17T01:22:25.502Z,16.50
2023-05-17T01:23:44.272Z,15.98
2023-05-17T01:25:01.535Z,16.75
2023-05-17T01:26:16.171Z,16.58
2023-05-17T01:27:22.945Z,15.65
2023-05-17T01:28:28.408Z,16.17
2023-05-17T01:29:34.375Z,16.00
2023-05-17T01:30:39.401Z,17.15
2023-05-17T01:31:43.703Z,16.05
2023-05-17T01:32:47.795Z,15.48
2023-05-17T01:33:51.907Z,15.80
2023-05-17T01:34:55.857Z,15.90
2023-05-17T01:35:59.741Z,15.77
2023-05-17T01:37:03.761Z,16.30
2023-05-17T01:38:07.602Z,16.40
2023-05-17T01:39:11.640Z,15.63
2023-05-17T01:40:15.684Z,16.17
2023-05-17T01:41:28.104Z,16.25
2023-05-17T01:42:34.328Z,16.33
2023-05-17T01:43:48.914Z,15.60
2023-05-17T01:45:00.080Z,16.17
2023-05-17T01:46:13.516Z,15.63
2023-05-17T01:47:21.957Z,15.60
2023-05-17T01:48:32.943Z,15.63
2023-05-17T01:49:40.454Z,15.68
2023-05-17T01:50:49.852Z,15.73
2023-05-17T01:52:06.325Z,15.02
2023-05-17T01:53:18.389Z,15.48
2023-05-17T01:54:24.250Z,15.35
2023-05-17T01:55:35.379Z,15.38
2023-05-17T01:56:44.552Z,15.00
2023-05-17T01:57:53.454Z,15.30
2023-05-17T01:58:59.226Z,15.75
2023-05-17T02:00:06.711Z,15.43
2023-05-17T02:01:12.104Z,15.23
2023-05-17T02:02:16.373Z,15.63
2023-05-17T02:03:25.407Z,14.27
2023-05-17T02:04:30.651Z,15.38
2023-05-17T02:05:34.590Z,15.88
2023-05-17T02:06:41.239Z,15.00
2023-05-17T02:07:45.088Z,14.23
2023-05-17T02:08:48.837Z,14.07
2023-05-17T02:09:52.740Z,14.43
2023-05-17T02:10:56.639Z,14.95
2023-05-17T02:12:00.507Z,14.60
2023-05-17T02:13:06.351Z,15.40
2023-05-17T02:14:10.237Z,14.68
2023-05-17T02:15:14.001Z,15.07
2023-05-17T02:16:17.765Z,13.80
2023-05-17T02:17:21.715Z,14.90
2023-05-17T02:18:25.704Z,14.80
2023-05-17T02:19:29.902Z,14.40
2023-05-17T02:20:33.864Z,14.88
2023-05-17T02:21:38.619Z,14.60
2023-05-17T02:22:42.480Z,15.00
2023-05-17T02:23:46.330Z,15.10
2023-05-17T02:25:06.340Z,14.77
2023-05-17T02:26:10.243Z,14.25
2023-05-17T02:27:14.108Z,14.95
2023-05-17T02:28:25.575Z,14.82
2023-05-17T02:29:29.437Z,15.10
2023-05-17T02:30:33.224Z,15.02
2023-05-17T02:31:36.969Z,15.07
2023-05-17T02:32:41.553Z,14.73
2023-05-17T02:34:12.207Z,14.50
2023-05-17T02:35:19.282Z,14.57
2023-05-17T02:36:26.083Z,14.38
2023-05-17T02:37:30.811Z,13.95
2023-05-17T02:38:34.708Z,14.38
2023-05-17T02:39:44.314Z,14.18
2023-05-17T02:40:48.681Z,14.00
2023-05-17T02:41:52.678Z,13.45
2023-05-17T02:42:57.063Z,14.80
2023-05-17T02:44:02.575Z,14.57
2023-05-17T02:45:07.121Z,14.10
2023-05-17T02:46:11.009Z,14.03
2023-05-17T02:47:14.903Z,13.60
2023-05-17T02:48:18.883Z,13.73
2023-05-17T02:49:22.852Z,14.00
2023-05-17T02:50:26.895Z,14.18
2023-05-17T02:51:30.797Z,14.30
2023-05-17T02:52:34.783Z,14.45
2023-05-17T02:53:38.717Z,14.18
2023-05-17T02:54:42.642Z,13.80
2023-05-17T02:55:46.513Z,14.13
2023-05-17T02:56:50.336Z,13.93
2023-05-17T02:57:54.165Z,13.20
2023-05-17T02:58:57.961Z,14.85
2023-05-17T03:00:03.547Z,13.55
2023-05-17T03:01:07.755Z,13.18
2023-05-17T03:02:11.876Z,14.23
2023-05-17T03:03:17.384Z,14.45
2023-05-17T03:04:21.684Z,14.05
2023-05-17T03:05:25.570Z,13.77
2023-05-17T03:06:29.557Z,13.80
2023-05-17T03:07:33.604Z,14.40
2023-05-17T03:08:37.616Z,13.55
2023-05-17T03:09:41.386Z,13.40
2023-05-17T03:10:45.262Z,14.40
2023-05-17T03:11:49.213Z,14.32
2023-05-17T03:12:53.082Z,13.60
2023-05-17T03:13:56.969Z,14.15
2023-05-17T03:15:02.471Z,13.63
2023-05-17T03:16:06.852Z,14.10
2023-05-17T03:17:10.668Z,13.35
2023-05-17T03:18:14.696Z,14.13
2023-05-17T03:19:18.767Z,13.18
2023-05-17T03:20:22.657Z,13.60
2023-05-17T03:21:28.947Z,13.77
2023-05-17T03:22:32.769Z,13.73
2023-05-17T03:23:36.698Z,14.27
2023-05-17T03:24:40.522Z,13.45
2023-05-17T03:25:44.424Z,14.50
2023-05-17T03:26:48.353Z,13.48
2023-05-17T03:27:52.210Z,13.10
2023-05-17T03:28:56.119Z,14.47
2023-05-17T03:29:59.933Z,13.63
2023-05-17T03:31:05.553Z,13.52
2023-05-17T03:32:10.153Z,13.65
2023-05-17T03:33:13.986Z,13.85
2023-05-17T03:34:17.990Z,13.57
2023-05-17T03:35:21.934Z,13.95
2023-05-17T03:36:25.767Z,14.07
2023-05-17T03:37:29.739Z,14.02
2023-05-17T03:38:33.737Z,13.82
2023-05-17T03:39:37.557Z,13.80
2023-05-17T03:40:41.631Z,14.15
2023-05-17T03:41:45.488Z,14.13
2023-05-17T03:42:49.363Z,13.50
2023-05-17T03:43:53.356Z,14.15
2023-05-17T03:44:57.227Z,14.43
2023-05-17T03:46:01.222Z,14.70
2023-05-17T03:47:07.367Z,14.55
2023-05-17T03:48:11.284Z,15.18
2023-05-17T03:49:15.238Z,13.48
2023-05-17T03:50:19.437Z,13.93
2023-05-17T03:51:23.376Z,13.38
2023-05-17T03:52:27.275Z,14.20
2023-05-17T03:53:31.053Z,13.30
2023-05-17T03:54:38.080Z,14.05
2023-05-17T03:55:41.970Z,13.67
2023-05-17T03:56:45.846Z,13.38
2023-05-17T03:57:49.729Z,14.02
2023-05-17T03:58:53.535Z,13.38
2023-05-17T03:59:57.277Z,13.32
2023-05-17T04:01:01.212Z,13.60
2023-05-17T04:02:07.018Z,14.80
2023-05-17T04:03:10.882Z,13.88
2023-05-17T04:04:14.791Z,13.63
2023-05-17T04:05:19.042Z,13.98
2023-05-17T04:06:23.003Z,13.33
2023-05-17T04:07:26.862Z,14.15
2023-05-17T04:08:30.979Z,13.95
2023-05-17T04:09:35.039Z,14.00
2023-05-17T04:10:38.917Z,13.48
2023-05-17T04:11:43.251Z,14.70
2023-05-17T04:12:47.060Z,14.00
2023-05-17T04:13:54.301Z,14.27
2023-05-17T04:15:06.231Z,13.85
2023-05-17T04:16:12.422Z,14.40
2023-05-17T04:17:18.987Z,14.23
2023-05-17T04:18:22.936Z,14.63
2023-05-17T04:19:27.064Z,13.70
2023-05-17T04:20:31.099Z,13.63
2023-05-17T04:21:35.037Z,13.27
2023-05-17T04:22:39.095Z,14.00
2023-05-17T04:23:43.052Z,13.60
2023-05-17T04:24:47.049Z,12.82
2023-05-17T04:25:53.336Z,13.20
2023-05-17T04:26:57.253Z,13.52
2023-05-17T04:28:01.135Z,13.83
2023-05-17T04:29:05.222Z,13.45
2023-05-17T04:30:11.564Z,14.13
2023-05-17T04:31:17.271Z,14.43
2023-05-17T04:32:25.497Z,13.43
2023-05-17T04:33:29.600Z,14.33
2023-05-17T04:34:34.776Z,13.05
2023-05-17T04:35:43.811Z,13.60
2023-05-17T04:36:47.652Z,13.68
2023-05-17T04:37:51.587Z,13.82
2023-05-17T04:38:57.644Z,13.07
2023-05-17T04:40:01.600Z,12.80
2023-05-17T04:41:05.656Z,13.70
2023-05-17T04:42:10.017Z,13.85
2023-05-17T04:43:15.172Z,13.80
2023-05-17T04:44:19.136Z,13.93
2023-05-17T04:45:22.997Z,13.95
2023-05-17T04:46:26.991Z,13.55
2023-05-17T04:47:32.625Z,12.80
2023-05-17T04:48:36.899Z,12.27
2023-05-17T04:49:40.803Z,13.60
2023-05-17T04:50:51.634Z,14.43
2023-05-17T04:51:55.485Z,13.13
2023-05-17T04:52:59.418Z,14.48
2023-05-17T04:54:03.215Z,13.52
2023-05-17T04:55:07.743Z,13.60
2023-05-17T04:56:11.630Z,12.98
2023-05-17T04:57:15.398Z,13.43
2023-05-17T04:58:19.336Z,12.57
2023-05-17T04:59:25.838Z,13.55
2023-05-17T05:00:29.590Z,14.03
2023-05-17T05:01:33.792Z,14.18
2023-05-17T05:02:39.408Z,13.35
2023-05-17T05:03:43.407Z,14.00
2023-05-17T05:04:47.399Z,14.77
2023-05-17T05:05:51.384Z,14.20
2023-05-17T05:06:57.326Z,14.38
2023-05-17T05:08:01.429Z,13.50
2023-05-17T05:09:08.600Z,13.50
2023-05-17T05:10:12.695Z,13.20
2023-05-17T05:11:16.560Z,13.17
2023-05-17T05:12:20.664Z,13.38
2023-05-17T05:13:24.474Z,12.95
2023-05-17T05:14:28.259Z,12.80
2023-05-17T05:15:33.575Z,13.45
2023-05-17T05:16:37.390Z,12.50
2023-05-17T05:17:43.047Z,13.25
2023-05-17T05:18:47.030Z,13.95
2023-05-17T05:19:51.208Z,12.88
2023-05-17T05:20:54.967Z,13.73
2023-05-17T05:22:03.283Z,15.47
2023-05-17T05:23:07.685Z,13.88
2023-05-17T05:24:11.628Z,14.95
2023-05-17T05:25:18.553Z,13.85
2023-05-17T05:26:22.511Z,14.20
2023-05-17T05:27:26.544Z,13.43
2023-05-17T05:28:30.552Z,13.82
2023-05-17T05:29:34.437Z,13.95
2023-05-17T05:30:38.341Z,14.32
2023-05-17T05:31:42.245Z,13.65
2023-05-17T05:32:47.862Z,14.30
2023-05-17T05:33:51.767Z,13.98
2023-05-17T05:34:55.675Z,14.07
2023-05-17T05:35:59.496Z,13.73
2023-05-17T05:37:03.307Z,13.80
2023-05-17T05:38:07.188Z,13.20
2023-05-17T05:39:11.118Z,14.23
2023-05-17T05:40:15.753Z,14.25
2023-05-17T05:41:19.845Z,13.75
2023-05-17T05:42:23.771Z,14.10
2023-05-17T05:43:27.619Z,13.70
2023-05-17T05:44:31.548Z,14.55
2023-05-17T05:45:35.337Z,14.77
2023-05-17T05:46:39.187Z,13.48
2023-05-17T05:47:43.106Z,14.85
2023-05-17T05:48:48.719Z,13.93
2023-05-17T05:49:52.620Z,13.77
2023-05-17T05:50:56.491Z,13.63
2023-05-17T05:52:00.417Z,14.40
2023-05-17T05:53:17.099Z,13.68
2023-05-17T05:54:23.045Z,13.43
2023-05-17T05:55:26.882Z,14.52
2023-05-17T05:56:30.679Z,14.90
2023-05-17T05:57:34.421Z,14.18
2023-05-17T05:58:38.635Z,14.38
2023-05-17T05:59:42.589Z,15.73
2023-05-17T06:00:46.439Z,14.00
2023-05-17T06:01:50.319Z,13.63
2023-05-17T06:02:54.902Z,13.00
2023-05-17T06:04:00.411Z,13.82
2023-05-17T06:05:04.341Z,13.17
2023-05-17T06:06:08.493Z,12.77
2023-05-17T06:07:12.490Z,13.18
2023-05-17T06:08:16.340Z,12.77
2023-05-17T06:09:20.200Z,13.13
2023-05-17T06:10:24.137Z,13.50
2023-05-17T06:11:28.038Z,13.50
2023-05-17T06:12:31.924Z,13.60
2023-05-17T06:13:35.844Z,14.18
2023-05-17T06:14:40.301Z,13.63
2023-05-17T06:15:44.139Z,13.77
2023-05-17T06:16:47.893Z,13.85
2023-05-17T06:17:51.795Z,13.93
2023-05-17T06:18:55.840Z,13.25
2023-05-17T06:20:01.513Z,13.55
2023-05-17T06:21:05.611Z,14.67
2023-05-17T06:22:09.504Z,14.05
2023-05-17T06:23:13.383Z,14.25
2023-05-17T06:24:17.468Z,14.73
2023-05-17T06:25:21.543Z,14.90
2023-05-17T06:26:25.459Z,14.40
2023-05-17T06:27:29.266Z,14.63
2023-05-17T06:28:33.065Z,14.75
2023-05-17T06:29:36.865Z,14.30
2023-05-17T06:30:40.658Z,14.98
2023-05-17T06:31:44.560Z,14.90
2023-05-17T06:32:48.364Z,14.18
2023-05-17T06:33:52.231Z,14.68
2023-05-17T06:34:57.382Z,14.85
2023-05-17T06:37:06.667Z,14.97
2023-05-17T06:38:10.500Z,14.23
2023-05-17T06:39:14.342Z,14.65
2023-05-17T06:40:20.947Z,14.05
2023-05-17T06:41:24.870Z,14.18
2023-05-17T06:42:28.758Z,14.80
2023-05-17T06:43:32.883Z,14.63
2023-05-17T06:44:37.556Z,13.73
2023-05-17T06:45:41.344Z,15.35
2023-05-17T06:46:45.309Z,15.38
2023-05-17T06:47:49.275Z,14.17
2023-05-17T06:48:53.201Z,15.45
2023-05-17T06:49:57.186Z,15.05
2023-05-17T06:51:02.858Z,15.45
2023-05-17T06:52:06.972Z,14.68
2023-05-17T06:53:10.805Z,15.57
2023-05-17T06:54:14.606Z,15.40
2023-05-17T06:55:18.503Z,15.13
2023-05-17T06:56:22.474Z,13.48
2023-05-17T06:57:26.324Z,14.40
2023-05-17T06:58:30.228Z,14.00
2023-05-17T06:59:34.050Z,14.77
2023-05-17T07:00:38.249Z,14.27
2023-05-17T07:01:42.030Z,14.75
2023-05-17T07:02:45.983Z,15.40
2023-05-17T07:03:49.914Z,15.03
2023-05-17T07:04:53.946Z,15.27
2023-05-17T07:05:57.792Z,14.68
2023-05-17T07:07:03.390Z,15.25
2023-05-17T07:08:07.276Z,15.50
2023-05-17T07:09:11.049Z,15.80
2023-05-17T07:10:14.909Z,15.73
2023-05-17T07:11:18.665Z,14.90
2023-05-17T07:12:22.966Z,15.07
2023-05-17T07:13:26.960Z,14.80
2023-05-17T07:14:33.443Z,14.67
2023-05-17T07:15:37.216Z,15.38
2023-05-17T07:16:41.307Z,14.50
2023-05-17T07:17:45.085Z,15.10
2023-05-17T07:18:48.923Z,15.43
2023-05-17T07:19:53.153Z,15.27
2023-05-17T07:20:57.048Z,15.68
2023-05-17T07:22:02.566Z,16.30
2023-05-17T07:23:06.475Z,16.33
2023-05-17T07:24:10.346Z,15.90
2023-05-17T07:25:14.145Z,16.47
2023-05-17T07:26:20.681Z,15.60
2023-05-17T07:27:24.555Z,15.93
2023-05-17T07:28:28.407Z,15.77
2023-05-17T07:29:32.382Z,16.33
2023-05-17T07:30:36.477Z,15.23
2023-05-17T07:31:40.220Z,15.35
2023-05-17T07:32:44.084Z,15.35
2023-05-17T07:33:47.951Z,15.63
2023-05-17T07:34:51.887Z,16.27
2023-05-17T07:35:55.713Z,14.60
2023-05-17T07:36:59.645Z,15.10
2023-05-17T07:38:05.241Z,14.55
2023-05-17T07:39:09.046Z,15.32
2023-05-17T07:40:14.629Z,14.98
2023-05-17T07:41:20.523Z,15.23
2023-05-17T07:42:24.401Z,13.90
2023-05-17T07:43:28.436Z,13.68
2023-05-17T07:44:32.261Z,13.80
2023-05-17T07:45:36.075Z,12.88
2023-05-17T07:46:39.932Z,13.40
2023-05-17T07:47:44.010Z,14.07
2023-05-17T07:48:50.848Z,14.45
2023-05-17T07:49:54.778Z,13.90
2023-05-17T07:50:58.635Z,14.70
2023-05-17T07:52:02.415Z,14.17
2023-05-17T07:53:07.886Z,14.80
2023-05-17T07:54:14.002Z,15.00
2023-05-17T07:55:17.900Z,14.02
2023-05-17T07:56:21.706Z,14.07
2023-05-17T07:57:25.611Z,14.50
2023-05-17T07:58:29.469Z,14.10
2023-05-17T07:59:33.434Z,14.00
2023-05-17T08:00:37.195Z,15.00
2023-05-17T08:01:41.047Z,14.98
2023-05-17T08:02:44.930Z,15.50
2023-05-17T08:03:48.836Z,15.95
2023-05-17T08:04:54.662Z,15.60
2023-05-17T08:05:58.727Z,17.02
2023-05-17T08:07:02.789Z,17.38
2023-05-17T08:08:08.923Z,16.50
2023-05-17T08:09:12.779Z,17.30
2023-05-17T08:10:16.562Z,17.00
2023-05-17T08:11:20.421Z,17.50
2023-05-17T08:12:24.298Z,17.23
2023-05-17T08:13:28.224Z,15.37
2023-05-17T08:14:32.007Z,14.40
2023-05-17T08:15:36.141Z,15.38
2023-05-17T08:16:39.997Z,16.15
2023-05-17T08:17:43.800Z,16.20
2023-05-17T08:18:47.892Z,16.00
2023-05-17T08:19:52.110Z,16.08
2023-05-17T08:20:56.082Z,15.30
2023-05-17T08:21:59.927Z,16.05
2023-05-17T08:23:04.923Z,15.23
2023-05-17T08:24:10.961Z,15.53
2023-05-17T08:25:16.823Z,17.00
2023-05-17T08:26:20.604Z,15.60
2023-05-17T08:27:24.383Z,15.40
2023-05-17T08:28:28.223Z,15.90
2023-05-17T08:29:32.101Z,15.63
2023-05-17T08:30:35.890Z,17.48
2023-05-17T08:31:39.787Z,17.13
2023-05-17T08:32:43.764Z,17.30
2023-05-17T08:33:47.647Z,16.00
2023-05-17T08:34:51.642Z,15.83
2023-05-17T08:35:55.616Z,16.77
2023-05-17T08:36:59.634Z,17.52
2023-05-17T08:38:03.501Z,16.48
2023-05-17T08:39:07.431Z,16.10
2023-05-17T08:40:13.565Z,15.70
2023-05-17T08:41:17.719Z,16.15
2023-05-17T08:42:24.130Z,16.30
2023-05-17T08:43:28.640Z,16.27
2023-05-17T08:44:32.610Z,16.83
2023-05-17T08:45:36.519Z,16.13
2023-05-17T08:46:41.699Z,15.95
2023-05-17T08:47:47.014Z,14.48
2023-05-17T08:48:52.394Z,16.08
2023-05-17T08:49:57.558Z,15.65
2023-05-17T08:51:01.567Z,15.73
2023-05-17T08:52:07.276Z,15.32
2023-05-17T08:53:11.748Z,14.85
2023-05-17T08:54:15.678Z,15.30
2023-05-17T08:55:21.588Z,15.40
2023-05-17T08:56:26.726Z,14.50
2023-05-17T08:57:32.577Z,15.68
2023-05-17T08:58:48.061Z,16.48
2023-05-17T09:00:00.119Z,15.30
2023-05-17T09:01:04.299Z,15.77
2023-05-17T09:02:09.221Z,15.87
2023-05-17T09:03:17.780Z,15.13
2023-05-17T09:04:22.511Z,15.18
2023-05-17T09:05:26.539Z,15.45
2023-05-17T09:06:32.555Z,15.77
2023-05-17T09:07:36.504Z,15.60
2023-05-17T09:08:40.368Z,15.00
2023-05-17T09:09:44.373Z,14.93
2023-05-17T09:10:50.164Z,15.48
2023-05-17T09:11:53.945Z,15.25
2023-05-17T09:12:57.892Z,16.87
2023-05-17T09:14:02.803Z,15.82
2023-05-17T09:15:16.904Z,15.95
2023-05-17T09:16:20.809Z,15.25
2023-05-17T09:17:24.674Z,16.67
2023-05-17T09:18:33.909Z,15.43
2023-05-17T09:19:45.250Z,14.85
2023-05-17T09:20:52.578Z,15.80
2023-05-17T09:21:56.433Z,15.13
2023-05-17T09:23:01.234Z,15.10
2023-05-17T09:24:08.415Z,15.77
2023-05-17T09:25:13.081Z,14.63
2023-05-17T09:26:18.717Z,14.82
2023-05-17T09:27:22.560Z,16.25
2023-05-17T09:28:26.468Z,15.30
2023-05-17T09:29:32.640Z,16.03
2023-05-17T09:30:37.506Z,15.43
2023-05-17T09:31:41.596Z,15.35
2023-05-17T09:32:46.084Z,15.77
2023-05-17T09:33:51.128Z,15.77
2023-05-17T09:34:55.146Z,16.27
2023-05-17T09:35:59.098Z,15.98
2023-05-17T09:37:03.027Z,16.00
2023-05-17T09:38:08.893Z,16.42
2023-05-17T09:39:13.426Z,16.50
2023-05-17T09:40:24.980Z,16.70
2023-05-17T09:41:32.057Z,15.52
2023-05-17T09:42:36.619Z,15.48
2023-05-17T09:43:40.693Z,15.15
2023-05-17T09:44:49.124Z,15.68
2023-05-17T09:45:57.763Z,16.20
2023-05-17T09:47:01.566Z,16.05
2023-05-17T09:48:16.165Z,16.00
2023-05-17T09:49:20.231Z,15.15
2023-05-17T09:50:26.144Z,15.73
2023-05-17T09:51:34.566Z,16.07
2023-05-17T09:52:38.420Z,15.85
2023-05-17T09:53:42.258Z,16.73
2023-05-17T09:54:52.824Z,17.38
2023-05-17T09:55:58.057Z,16.30
2023-05-17T09:57:03.684Z,16.43
2023-05-17T09:58:07.564Z,15.88
2023-05-17T09:59:14.987Z,16.25
2023-05-17T10:00:21.684Z,16.67
2023-05-17T10:01:28.291Z,16.48
2023-05-17T10:02:34.768Z,14.97
2023-05-17T10:03:39.279Z,16.45
2023-05-17T10:04:44.334Z,15.05
2023-05-17T10:05:51.314Z,15.48
2023-05-17T10:06:55.328Z,15.30
2023-05-17T10:08:01.483Z,14.30
2023-05-17T10:09:07.188Z,14.82
2023-05-17T10:10:12.387Z,15.57
2023-05-17T10:11:16.625Z,14.30
2023-05-17T10:12:25.063Z,14.43
2023-05-17T10:13:34.427Z,15.57
2023-05-17T10:14:39.417Z,14.38
2023-05-17T10:15:44.922Z,15.18
2023-05-17T10:16:49.733Z,15.52
2023-05-17T10:17:54.410Z,15.60
2023-05-17T10:18:58.733Z,14.30
2023-05-17T10:20:04.723Z,15.02
2023-05-17T10:21:09.106Z,14.70
2023-05-17T10:22:23.437Z,14.25
2023-05-17T10:23:28.563Z,14.48
2023-05-17T10:24:33.472Z,14.53
2023-05-17T10:25:37.672Z,14.10
2023-05-17T10:26:42.794Z,14.30
2023-05-17T10:27:49.340Z,13.82
2023-05-17T10:28:54.749Z,13.77
2023-05-17T10:29:59.887Z,14.20
2023-05-17T10:31:05.606Z,14.02
2023-05-17T10:32:10.176Z,14.85
2023-05-17T10:33:16.801Z,14.00
2023-05-17T10:34:21.454Z,15.20
2023-05-17T10:35:26.136Z,15.97
2023-05-17T10:36:30.724Z,14.85
2023-05-17T10:37:35.462Z,15.38
2023-05-17T10:38:42.862Z,15.18
2023-05-17T10:39:47.413Z,15.43
2023-05-17T10:40:53.101Z,16.33
2023-05-17T10:42:13.640Z,16.02
2023-05-17T10:43:20.300Z,16.50
2023-05-17T10:44:24.876Z,15.90
2023-05-17T10:45:29.497Z,17.30
2023-05-17T10:46:33.555Z,16.57
2023-05-17T10:47:37.501Z,15.65
2023-05-17T10:48:41.967Z,16.45
2023-05-17T10:49:46.329Z,17.17
2023-05-17T10:51:01.178Z,17.48
2023-05-17T10:52:13.894Z,18.30
2023-05-17T10:53:17.690Z,18.08
2023-05-17T10:54:21.804Z,17.88
2023-05-17T10:55:35.869Z,16.60
2023-05-17T10:56:42.220Z,16.65
2023-05-17T10:57:50.661Z,16.30
2023-05-17T10:59:18.422Z,16.90
2023-05-17T11:00:24.842Z,17.13
2023-05-17T11:01:51.477Z,15.80
2023-05-17T11:03:12.991Z,17.05
2023-05-17T11:04:24.432Z,15.40
2023-05-17T11:05:28.788Z,15.45
2023-05-17T11:06:37.976Z,16.35
2023-05-17T11:07:43.061Z,16.60
2023-05-17T11:09:06.694Z,16.88
2023-05-17T11:10:13.497Z,15.57
2023-05-17T11:11:20.124Z,15.15
2023-05-17T11:12:33.700Z,17.60
2023-05-17T11:13:46.805Z,16.60
2023-05-17T11:14:54.253Z,16.30
2023-05-17T11:16:09.272Z,16.03
2023-05-17T11:17:17.004Z,16.17
2023-05-17T11:18:30.416Z,15.90
2023-05-17T11:19:34.642Z,15.93
2023-05-17T11:20:39.041Z,16.08
2023-05-17T11:21:51.736Z,15.77
2023-05-17T11:22:59.142Z,16.50
2023-05-17T11:24:03.973Z,16.35
2023-05-17T11:25:09.659Z,16.02
2023-05-17T11:26:23.411Z,16.65
2023-05-17T11:27:27.187Z,16.27
2023-05-17T11:28:33.383Z,15.60
2023-05-17T11:29:40.598Z,16.30
2023-05-17T11:30:46.513Z,16.65
2023-05-17T11:31:53.372Z,16.70
2023-05-17T11:33:01.854Z,16.07
2023-05-17T11:34:06.342Z,15.18
2023-05-17T11:35:14.130Z,16.42
2023-05-17T11:36:21.923Z,16.30
2023-05-17T11:37:29.291Z,17.00
2023-05-17T11:38:33.204Z,15.83
2023-05-17T11:39:37.116Z,16.65
2023-05-17T11:40:42.107Z,16.48
2023-05-17T11:41:51.620Z,15.85
2023-05-17T11:43:13.425Z,15.80
2023-05-17T11:44:23.467Z,14.70
2023-05-17T11:45:27.824Z,16.73
2023-05-17T11:46:34.137Z,16.25
2023-05-17T11:47:41.162Z,16.33
2023-05-17T11:48:46.335Z,16.92
2023-05-17T11:49:50.897Z,16.67
2023-05-17T11:50:56.139Z,17.23
2023-05-17T11:52:00.132Z,16.52
2023-05-17T11:53:05.428Z,16.48
2023-05-17T11:54:12.946Z,16.83
2023-05-17T11:55:17.871Z,17.00
2023-05-17T11:56:29.023Z,16.63
2023-05-17T11:57:41.043Z,17.05
2023-05-17T11:58:46.273Z,17.10
2023-05-17T11:59:50.138Z,17.00
2023-05-17T12:00:55.469Z,16.67
2023-05-17T12:02:01.082Z,16.77
2023-05-17T12:03:20.890Z,17.17
2023-05-17T12:04:28.900Z,17.67
2023-05-17T12:05:34.005Z,16.65
2023-05-17T12:06:38.270Z,15.77
2023-05-17T12:07:42.235Z,16.08
2023-05-17T12:08:47.395Z,15.90
2023-05-17T12:09:51.513Z,16.33
2023-05-17T12:10:55.657Z,15.85
2023-05-17T12:11:59.822Z,16.13
2023-05-17T12:13:03.742Z,16.52
2023-05-17T12:14:08.077Z,16.40
2023-05-17T12:15:20.153Z,16.55
2023-05-17T12:16:24.649Z,15.38
2023-05-17T12:17:38.090Z,15.27
2023-05-17T12:18:43.107Z,16.33
2023-05-17T12:19:47.214Z,15.82
2023-05-17T12:20:58.385Z,16.02
2023-05-17T12:22:09.048Z,15.93
2023-05-17T12:23:13.045Z,16.77
2023-05-17T12:24:17.046Z,15.63
2023-05-17T12:25:21.770Z,16.00
2023-05-17T12:26:25.605Z,16.17
2023-05-17T12:27:29.526Z,14.98
2023-05-17T12:28:33.580Z,14.80
2023-05-17T12:29:37.512Z,15.23
2023-05-17T12:30:41.802Z,15.95
2023-05-17T12:31:49.194Z,17.08
2023-05-17T12:32:55.076Z,17.15
2023-05-17T12:34:00.041Z,16.27
2023-05-17T12:35:04.064Z,16.30
2023-05-17T12:36:08.979Z,15.70
2023-05-17T12:37:13.331Z,17.55
2023-05-17T12:38:17.495Z,17.05
2023-05-17T12:39:22.004Z,16.73
2023-05-17T12:40:25.963Z,16.80
2023-05-17T12:41:30.513Z,17.70
2023-05-17T12:42:34.522Z,17.63
2023-05-17T12:43:39.846Z,16.88
2023-05-17T12:44:43.736Z,17.53
2023-05-17T12:45:49.313Z,16.52
2023-05-17T12:46:55.009Z,18.33
2023-05-17T12:48:01.798Z,17.45
2023-05-17T12:49:08.752Z,17.83
2023-05-17T12:50:25.841Z,16.33
2023-05-17T12:51:29.718Z,18.38
2023-05-17T12:52:35.997Z,17.70
2023-05-17T12:53:40.723Z,16.58
2023-05-17T12:54:44.662Z,18.13
2023-05-17T12:55:49.706Z,17.87
2023-05-17T12:56:53.784Z,16.77
2023-05-17T12:57:57.670Z,16.73
2023-05-17T12:59:11.727Z,17.67
2023-05-17T13:00:16.724Z,17.02
2023-05-17T13:01:20.534Z,17.50
2023-05-17T13:02:24.486Z,18.33
2023-05-17T13:03:30.484Z,16.75
2023-05-17T13:04:35.255Z,18.05
2023-05-17T13:05:39.033Z,16.60
2023-05-17T13:06:51.655Z,17.37
2023-05-17T13:07:55.492Z,19.17
2023-05-17T13:09:02.547Z,18.33
2023-05-17T13:10:07.000Z,18.45
2023-05-17T13:11:12.821Z,18.67
2023-05-17T13:12:21.685Z,20.87
2023-05-17T13:13:25.527Z,19.20
2023-05-17T13:14:36.922Z,17.67
2023-05-17T13:15:40.755Z,17.75
2023-05-17T13:16:44.739Z,18.17
2023-05-17T13:17:49.631Z,18.03
2023-05-17T13:18:55.282Z,18.63
2023-05-17T13:19:59.275Z,18.10
2023-05-17T13:21:03.617Z,18.83
2023-05-17T13:22:07.871Z,17.45
2023-05-17T13:23:11.770Z,17.43
2023-05-17T13:24:15.817Z,18.08
2023-05-17T13:25:19.734Z,18.20
2023-05-17T13:26:23.605Z,18.02
2023-05-17T13:27:28.967Z,17.90
2023-05-17T13:28:32.962Z,18.23
2023-05-17T13:29:40.235Z,17.88
2023-05-17T13:30:44.353Z,17.10
2023-05-17T13:31:48.201Z,17.70
2023-05-17T13:32:52.392Z,17.20
2023-05-17T13:33:58.419Z,17.03
2023-05-17T13:35:02.365Z,17.42
2023-05-17T13:36:07.075Z,17.63
2023-05-17T13:37:12.544Z,18.85
2023-05-17T13:38:16.965Z,18.15
2023-05-17T13:39:21.150Z,17.73
2023-05-17T13:40:24.997Z,17.48
2023-05-17T13:41:29.119Z,17.67
2023-05-17T13:42:33.094Z,17.30
2023-05-17T13:43:37.510Z,15.75
2023-05-17T13:44:41.407Z,15.57
2023-05-17T13:45:45.659Z,15.82
2023-05-17T13:46:49.641Z,16.63
2023-05-17T13:47:53.561Z,15.90
2023-05-17T13:48:59.307Z,15.40
2023-05-17T13:50:03.185Z,16.30
2023-05-17T13:51:07.210Z,15.60
2023-05-17T13:52:11.019Z,15.70
2023-05-17T13:53:14.889Z,16.00
2023-05-17T13:54:19.120Z,15.23
2023-05-17T13:55:23.099Z,15.10
2023-05-17T13:56:26.997Z,15.40
2023-05-17T13:57:30.872Z,15.57
2023-05-17T13:58:34.686Z,14.80
2023-05-17T13:59:38.568Z,14.13
2023-05-17T14:00:43.516Z,13.93
2023-05-17T14:01:47.868Z,15.30
2023-05-17T14:02:51.788Z,14.15
2023-05-17T14:03:55.687Z,14.95